sensor_id;sensor_type;location;lat;lon;timestamp;pressure;altitude;pressure_sealevel;temperature;humidity
12178;BME280;6152;48.728;9.256;2023-05-20T00:00:44;97184.13;;;11.91;100.00
12178;BME280;6152;48.728;9.256;2023-05-20T00:03:16;97181.44;;;11.92;100.00
12178;BME280;6152;48.728;9.256;2023-05-20T00:05:42;97190.41;;;12.01;100.00
12178;BME280;6152;48.728;9.256;2023-05-20T00:08:10;97177.56;;;11.98;100.00
12178;BME280;6152;48.728;9.256;2023-05-20T00:10:36;97181.66;;;12.02;100.00
12178;BME280;6152;48.728;9.256;2023-05-20T00:13:03;97183.03;;;12.07;100.00
12178;BME280;6152;48.728;9.256;2023-05-20T00:15:29;97175.84;;;12.11;100.00
12178;BME280;6152;48.728;9.256;2023-05-20T00:17:56;97174.09;;;12.24;100.00
12178;BME280;6152;48.728;9.256;2023-05-20T00:20:22;97184.00;;;12.19;100.00
12178;BME280;6152;48.728;9.256;2023-05-20T00:22:48;97174.09;;;12.24;100.00
12178;BME280;6152;48.728;9.256;2023-05-20T00:25:14;97167.94;;;12.25;100.00
12178;BME280;6152;48.728;9.256;2023-05-20T00:27:41;97168.16;;;12.22;100.00
12178;BME280;6152;48.728;9.256;2023-05-20T00:30:08;97164.59;;;12.23;100.00
12178;BME280;6152;48.728;9.256;2023-05-20T00:32:34;97170.75;;;12.22;100.00
12178;BME280;6152;48.728;9.256;2023-05-20T00:35:01;97164.28;;;12.28;100.00
12178;BME280;6152;48.728;9.256;2023-05-20T00:37:27;97166.88;;;12.15;100.00
12178;BME280;6152;48.728;9.256;2023-05-20T00:39:53;97160.31;;;12.09;100.00
12178;BME280;6152;48.728;9.256;2023-05-20T00:42:26;97164.88;;;12.06;100.00
12178;BME280;6152;48.728;9.256;2023-05-20T00:44:53;97166.34;;;12.10;100.00
12178;BME280;6152;48.728;9.256;2023-05-20T00:47:20;97172.31;;;12.12;100.00
12178;BME280;6152;48.728;9.256;2023-05-20T00:49:49;97162.78;;;12.11;100.00
12178;BME280;6152;48.728;9.256;2023-05-20T00:52:17;97168.97;;;12.10;100.00
12178;BME280;6152;48.728;9.256;2023-05-20T00:54:44;97159.53;;;12.07;100.00
12178;BME280;6152;48.728;9.256;2023-05-20T00:57:11;97148.59;;;12.02;100.00
12178;BME280;6152;48.728;9.256;2023-05-20T00:59:38;97160.38;;;12.08;100.00
12178;BME280;6152;48.728;9.256;2023-05-20T01:02:05;97156.31;;;12.04;100.00
12178;BME280;6152;48.728;9.256;2023-05-20T01:04:32;97161.53;;;12.04;100.00
12178;BME280;6152;48.728;9.256;2023-05-20T01:06:59;97155.47;;;12.03;100.00
12178;BME280;6152;48.728;9.256;2023-05-20T01:09:33;97158.72;;;12.07;100.00
12178;BME280;6152;48.728;9.256;2023-05-20T01:14:40;97157.97;;;12.05;100.00
12178;BME280;6152;48.728;9.256;2023-05-20T01:17:09;97152.75;;;12.05;100.00
12178;BME280;6152;48.728;9.256;2023-05-20T01:19:44;97154.88;;;12.12;100.00
12178;BME280;6152;48.728;9.256;2023-05-20T01:22:11;97151.09;;;12.04;100.00
12178;BME280;6152;48.728;9.256;2023-05-20T01:24:47;97151.28;;;12.01;100.00
12178;BME280;6152;48.728;9.256;2023-05-20T01:27:13;97146.28;;;11.98;100.00
12178;BME280;6152;48.728;9.256;2023-05-20T01:29:41;97141.28;;;11.95;100.00
12178;BME280;6152;48.728;9.256;2023-05-20T01:32:11;97144.59;;;11.97;100.00
12178;BME280;6152;48.728;9.256;2023-05-20T01:34:40;97144.28;;;11.89;100.00
12178;BME280;6152;48.728;9.256;2023-05-20T01:37:07;97135.63;;;11.88;100.00
12178;BME280;6152;48.728;9.256;2023-05-20T01:39:36;97141.69;;;11.89;100.00
12178;BME280;6152;48.728;9.256;2023-05-20T01:42:05;97139.16;;;11.87;100.00
12178;BME280;6152;48.728;9.256;2023-05-20T01:44:32;97141.88;;;11.86;100.00
12178;BME280;6152;48.728;9.256;2023-05-20T01:46:59;97139.59;;;11.94;100.00
12178;BME280;6152;48.728;9.256;2023-05-20T01:49:26;97138.94;;;11.90;100.00
12178;BME280;6152;48.728;9.256;2023-05-20T01:51:52;97140.19;;;11.85;100.00
12178;BME280;6152;48.728;9.256;2023-05-20T01:54:18;97142.25;;;11.80;100.00
12178;BME280;6152;48.728;9.256;2023-05-20T01:56:45;97128.13;;;11.70;100.00
12178;BME280;6152;48.728;9.256;2023-05-20T01:59:11;97132.81;;;11.64;100.00
12178;BME280;6152;48.728;9.256;2023-05-20T02:01:37;97130.72;;;11.70;100.00
12178;BME280;6152;48.728;9.256;2023-05-20T02:04:04;97126.56;;;11.67;100.00
12178;BME280;6152;48.728;9.256;2023-05-20T02:06:30;97132.25;;;11.59;100.00
12178;BME280;6152;48.728;9.256;2023-05-20T02:08:56;97131.53;;;11.57;100.00
12178;BME280;6152;48.728;9.256;2023-05-20T02:11:22;97136.94;;;11.54;100.00
12178;BME280;6152;48.728;9.256;2023-05-20T02:13:49;97126.06;;;11.48;100.00
12178;BME280;6152;48.728;9.256;2023-05-20T02:16:16;97129.69;;;11.45;100.00
12178;BME280;6152;48.728;9.256;2023-05-20T02:18:42;97133.34;;;11.43;100.00
12178;BME280;6152;48.728;9.256;2023-05-20T02:21:08;97126.00;;;11.35;100.00
12178;BME280;6152;48.728;9.256;2023-05-20T02:23:35;97128.81;;;11.32;100.00
12178;BME280;6152;48.728;9.256;2023-05-20T02:26:01;97123.06;;;11.27;100.00
12178;BME280;6152;48.728;9.256;2023-05-20T02:28:27;97130.50;;;11.19;100.00
12178;BME280;6152;48.728;9.256;2023-05-20T02:30:53;97127.06;;;11.19;100.00
12178;BME280;6152;48.728;9.256;2023-05-20T02:33:19;97132.72;;;11.25;100.00
12178;BME280;6152;48.728;9.256;2023-05-20T02:35:46;97132.00;;;11.23;100.00
12178;BME280;6152;48.728;9.256;2023-05-20T02:38:12;97131.16;;;11.23;100.00
12178;BME280;6152;48.728;9.256;2023-05-20T02:40:38;97126.63;;;11.12;100.00
12178;BME280;6152;48.728;9.256;2023-05-20T02:43:05;97131.09;;;11.10;100.00
12178;BME280;6152;48.728;9.256;2023-05-20T02:45:31;97137.13;;;11.10;100.00
12178;BME280;6152;48.728;9.256;2023-05-20T02:47:57;97137.97;;;11.11;100.00
12178;BME280;6152;48.728;9.256;2023-05-20T02:50:23;97139.84;;;11.09;100.00
12178;BME280;6152;48.728;9.256;2023-05-20T02:52:50;97136.47;;;11.07;100.00
12178;BME280;6152;48.728;9.256;2023-05-20T02:55:16;97136.47;;;11.07;100.00
12178;BME280;6152;48.728;9.256;2023-05-20T02:57:42;97131.47;;;11.04;100.00
12178;BME280;6152;48.728;9.256;2023-05-20T03:00:08;97134.16;;;11.02;100.00
12178;BME280;6152;48.728;9.256;2023-05-20T03:02:41;97133.06;;;11.06;100.00
12178;BME280;6152;48.728;9.256;2023-05-20T03:05:07;97131.66;;;11.01;100.00
12178;BME280;6152;48.728;9.256;2023-05-20T03:07:35;97132.50;;;11.01;100.00
12178;BME280;6152;48.728;9.256;2023-05-20T03:10:02;97127.38;;;11.00;100.00
12178;BME280;6152;48.728;9.256;2023-05-20T03:12:28;97129.97;;;11.00;100.00
12178;BME280;6152;48.728;9.256;2023-05-20T03:14:54;97125.59;;;11.00;100.00
12178;BME280;6152;48.728;9.256;2023-05-20T03:17:23;97131.19;;;10.94;100.00
12178;BME280;6152;48.728;9.256;2023-05-20T03:19:50;97129.06;;;10.87;100.00
12178;BME280;6152;48.728;9.256;2023-05-20T03:22:16;97129.06;;;10.87;100.00
12178;BME280;6152;48.728;9.256;2023-05-20T03:24:42;97117.91;;;10.85;100.00
12178;BME280;6152;48.728;9.256;2023-05-20T03:27:09;97125.53;;;10.88;100.00
12178;BME280;6152;48.728;9.256;2023-05-20T03:29:35;97123.66;;;10.90;100.00
12178;BME280;6152;48.728;9.256;2023-05-20T03:32:01;97126.56;;;10.85;100.00
12178;BME280;6152;48.728;9.256;2023-05-20T03:34:27;97129.63;;;10.78;100.00
12178;BME280;6152;48.728;9.256;2023-05-20T03:36:55;97131.47;;;10.76;100.00
12178;BME280;6152;48.728;9.256;2023-05-20T03:39:22;97136.53;;;10.79;100.00
12178;BME280;6152;48.728;9.256;2023-05-20T03:41:49;97131.47;;;10.76;100.00
12178;BME280;6152;48.728;9.256;2023-05-20T03:44:15;97134.25;;;10.73;100.00
12178;BME280;6152;48.728;9.256;2023-05-20T03:46:42;97135.75;;;10.77;100.00
12178;BME280;6152;48.728;9.256;2023-05-20T03:49:08;97137.34;;;10.79;100.00
12178;BME280;6152;48.728;9.256;2023-05-20T03:51:34;97136.41;;;10.80;100.00
12178;BME280;6152;48.728;9.256;2023-05-20T03:54:00;97136.88;;;10.87;100.00
12178;BME280;6152;48.728;9.256;2023-05-20T03:56:26;97141.81;;;10.91;100.00
12178;BME280;6152;48.728;9.256;2023-05-20T03:58:53;97132.03;;;10.95;100.00
12178;BME280;6152;48.728;9.256;2023-05-20T04:01:19;97135.94;;;11.02;100.00
12178;BME280;6152;48.728;9.256;2023-05-20T04:03:46;97138.34;;;11.05;100.00
12178;BME280;6152;48.728;9.256;2023-05-20T04:06:13;97136.84;;;11.01;100.00
12178;BME280;6152;48.728;9.256;2023-05-20T04:08:39;97141.59;;;11.08;100.00
12178;BME280;6152;48.728;9.256;2023-05-20T04:11:05;97144.19;;;11.08;100.00
12178;BME280;6152;48.728;9.256;2023-05-20T04:13:31;97139.84;;;11.09;100.00
12178;BME280;6152;48.728;9.256;2023-05-20T04:15:58;97138.72;;;11.13;100.00
12178;BME280;6152;48.728;9.256;2023-05-20T04:18:26;97135.16;;;11.14;100.00
12178;BME280;6152;48.728;9.256;2023-05-20T04:20:54;97137.41;;;11.20;100.00
12178;BME280;6152;48.728;9.256;2023-05-20T04:23:26;97135.53;;;11.22;100.00
12178;BME280;6152;48.728;9.256;2023-05-20T04:25:52;97134.94;;;11.31;100.00
12178;BME280;6152;48.728;9.256;2023-05-20T04:28:18;97128.53;;;11.37;100.00
12178;BME280;6152;48.728;9.256;2023-05-20T04:30:48;97134.16;;;11.43;100.00
12178;BME280;6152;48.728;9.256;2023-05-20T04:33:15;97117.91;;;11.40;100.00
12178;BME280;6152;48.728;9.256;2023-05-20T04:35:43;97121.34;;;11.40;100.00
12178;BME280;6152;48.728;9.256;2023-05-20T04:38:09;97126.75;;;11.37;100.00
12178;BME280;6152;48.728;9.256;2023-05-20T04:40:35;97118.34;;;11.46;100.00
12178;BME280;6152;48.728;9.256;2023-05-20T04:43:02;97125.22;;;11.47;100.00
12178;BME280;6152;48.728;9.256;2023-05-20T04:45:28;97126.72;;;11.51;100.00
12178;BME280;6152;48.728;9.256;2023-05-20T04:47:54;97123.34;;;11.49;100.00
12178;BME280;6152;48.728;9.256;2023-05-20T04:50:21;97124.44;;;11.59;100.00
12178;BME280;6152;48.728;9.256;2023-05-20T04:52:47;97122.19;;;11.68;100.00
12178;BME280;6152;48.728;9.256;2023-05-20T04:55:14;97121.41;;;11.80;100.00
12178;BME280;6152;48.728;9.256;2023-05-20T04:57:41;97127.44;;;11.80;100.00
12178;BME280;6152;48.728;9.256;2023-05-20T05:00:11;97131.25;;;11.89;100.00
12178;BME280;6152;48.728;9.256;2023-05-20T05:02:38;97120.63;;;12.04;100.00
12178;BME280;6152;48.728;9.256;2023-05-20T05:05:04;97121.81;;;12.13;100.00
12178;BME280;6152;48.728;9.256;2023-05-20T05:07:30;97120.34;;;12.22;100.00
12178;BME280;6152;48.728;9.256;2023-05-20T05:09:57;97125.69;;;12.20;100.00
12178;BME280;6152;48.728;9.256;2023-05-20T05:12:23;97116.28;;;12.30;100.00
12178;BME280;6152;48.728;9.256;2023-05-20T05:14:49;97120.66;;;12.30;100.00
12178;BME280;6152;48.728;9.256;2023-05-20T05:17:15;97119.41;;;12.35;100.00
12178;BME280;6152;48.728;9.256;2023-05-20T05:19:41;97119.00;;;12.41;100.00
12178;BME280;6152;48.728;9.256;2023-05-20T05:22:07;97117.25;;;12.54;100.00
12178;BME280;6152;48.728;9.256;2023-05-20T05:24:34;97108.75;;;12.63;100.00
12178;BME280;6152;48.728;9.256;2023-05-20T05:27:00;97102.91;;;12.73;100.00
12178;BME280;6152;48.728;9.256;2023-05-20T05:29:26;97103.94;;;12.83;100.00
12178;BME280;6152;48.728;9.256;2023-05-20T05:31:52;97109.56;;;13.02;100.00
12178;BME280;6152;48.728;9.256;2023-05-20T05:34:18;97103.47;;;13.14;100.00
12178;BME280;6152;48.728;9.256;2023-05-20T05:36:44;97097.16;;;13.29;100.00
12178;BME280;6152;48.728;9.256;2023-05-20T05:39:10;97096.78;;;13.46;100.00
12178;BME280;6152;48.728;9.256;2023-05-20T05:41:36;97100.84;;;13.50;100.00
12178;BME280;6152;48.728;9.256;2023-05-20T05:44:03;97103.31;;;13.64;100.00
12178;BME280;6152;48.728;9.256;2023-05-20T05:46:30;97104.53;;;13.72;100.00
12178;BME280;6152;48.728;9.256;2023-05-20T05:48:56;97099.06;;;13.75;100.00
12178;BME280;6152;48.728;9.256;2023-05-20T05:51:23;97085.44;;;13.82;100.00
12178;BME280;6152;48.728;9.256;2023-05-20T05:53:52;97089.03;;;13.92;100.00
12178;BME280;6152;48.728;9.256;2023-05-20T05:56:18;97090.50;;;14.07;100.00
12178;BME280;6152;48.728;9.256;2023-05-20T05:58:45;97090.19;;;14.23;100.00
12178;BME280;6152;48.728;9.256;2023-05-20T06:01:13;97088.50;;;14.22;100.00
12178;BME280;6152;48.728;9.256;2023-05-20T06:03:39;97093.88;;;14.32;100.00
12178;BME280;6152;48.728;9.256;2023-05-20T06:06:05;97090.25;;;14.45;100.00
12178;BME280;6152;48.728;9.256;2023-05-20T06:08:31;97092.41;;;14.62;100.00
12178;BME280;6152;48.728;9.256;2023-05-20T06:10:57;97088.84;;;14.75;100.00
12178;BME280;6152;48.728;9.256;2023-05-20T06:13:23;97090.97;;;14.81;100.00
12178;BME280;6152;48.728;9.256;2023-05-20T06:15:50;97088.13;;;14.84;100.00
12178;BME280;6152;48.728;9.256;2023-05-20T06:18:16;97084.19;;;15.00;100.00
12178;BME280;6152;48.728;9.256;2023-05-20T06:20:42;97085.50;;;15.06;100.00
12178;BME280;6152;48.728;9.256;2023-05-20T06:23:08;97088.56;;;15.11;100.00
12178;BME280;6152;48.728;9.256;2023-05-20T06:25:34;97081.06;;;15.17;100.00
12178;BME280;6152;48.728;9.256;2023-05-20T06:28:01;97082.31;;;15.34;100.00
12178;BME280;6152;48.728;9.256;2023-05-20T06:30:27;97079.34;;;15.39;100.00
12178;BME280;6152;48.728;9.256;2023-05-20T06:32:53;97078.25;;;15.52;100.00
12178;BME280;6152;48.728;9.256;2023-05-20T06:35:19;97074.94;;;15.82;100.00
12178;BME280;6152;48.728;9.256;2023-05-20T06:37:45;97076.03;;;16.00;100.00
12178;BME280;6152;48.728;9.256;2023-05-20T06:40:12;97068.41;;;15.97;100.00
12178;BME280;6152;48.728;9.256;2023-05-20T06:42:38;97067.47;;;16.19;100.00
12178;BME280;6152;48.728;9.256;2023-05-20T06:45:04;97072.56;;;16.41;100.00
12178;BME280;6152;48.728;9.256;2023-05-20T06:47:30;97062.59;;;16.35;100.00
12178;BME280;6152;48.728;9.256;2023-05-20T06:49:56;97068.69;;;16.36;100.00
12178;BME280;6152;48.728;9.256;2023-05-20T06:52:23;97065.41;;;16.43;100.00
12178;BME280;6152;48.728;9.256;2023-05-20T06:54:49;97070.66;;;16.43;100.00
12178;BME280;6152;48.728;9.256;2023-05-20T06:57:15;97064.25;;;16.57;100.00
12178;BME280;6152;48.728;9.256;2023-05-20T06:59:41;97055.78;;;16.53;100.00
12178;BME280;6152;48.728;9.256;2023-05-20T07:02:07;97058.34;;;16.64;100.00
12178;BME280;6152;48.728;9.256;2023-05-20T07:04:33;97052.84;;;16.67;100.00
12178;BME280;6152;48.728;9.256;2023-05-20T07:06:59;97049.97;;;16.80;100.00
12178;BME280;6152;48.728;9.256;2023-05-20T07:09:25;97049.88;;;16.91;100.00
12178;BME280;6152;48.728;9.256;2023-05-20T07:11:52;97052.53;;;17.01;100.00
12178;BME280;6152;48.728;9.256;2023-05-20T07:14:18;97036.22;;;17.07;100.00
12178;BME280;6152;48.728;9.256;2023-05-20T07:16:44;97040.69;;;17.16;100.00
12178;BME280;6152;48.728;9.256;2023-05-20T07:19:10;97038.63;;;17.29;100.00
12178;BME280;6152;48.728;9.256;2023-05-20T07:21:36;97035.03;;;17.40;100.00
12178;BME280;6152;48.728;9.256;2023-05-20T07:24:02;97038.63;;;17.48;100.00
12178;BME280;6152;48.728;9.256;2023-05-20T07:26:29;97030.38;;;17.62;100.00
12178;BME280;6152;48.728;9.256;2023-05-20T07:28:58;97032.84;;;17.83;100.00
12178;BME280;6152;48.728;9.256;2023-05-20T07:31:24;97026.22;;;17.60;100.00
12178;BME280;6152;48.728;9.256;2023-05-20T07:33:50;97027.88;;;17.71;100.00
12178;BME280;6152;48.728;9.256;2023-05-20T07:36:17;97032.31;;;17.80;100.00
12178;BME280;6152;48.728;9.256;2023-05-20T07:38:43;97039.75;;;18.03;100.00
12178;BME280;6152;48.728;9.256;2023-05-20T07:41:09;97042.69;;;18.10;100.00
12178;BME280;6152;48.728;9.256;2023-05-20T07:43:36;97037.94;;;18.13;100.00
12178;BME280;6152;48.728;9.256;2023-05-20T07:46:02;97036.47;;;17.92;100.00
12178;BME280;6152;48.728;9.256;2023-05-20T07:48:28;97025.78;;;17.84;100.00
12178;BME280;6152;48.728;9.256;2023-05-20T07:50:54;97026.75;;;18.02;100.00
12178;BME280;6152;48.728;9.256;2023-05-20T07:53:24;97019.53;;;18.04;100.00
12178;BME280;6152;48.728;9.256;2023-05-20T07:55:50;97013.44;;;17.94;100.00
12178;BME280;6152;48.728;9.256;2023-05-20T07:58:16;97009.72;;;18.06;100.00
12178;BME280;6152;48.728;9.256;2023-05-20T08:00:44;97006.91;;;18.07;100.00
12178;BME280;6152;48.728;9.256;2023-05-20T08:03:10;97023.41;;;18.09;100.00
12178;BME280;6152;48.728;9.256;2023-05-20T08:05:37;97026.19;;;18.08;100.00
12178;BME280;6152;48.728;9.256;2023-05-20T08:08:03;97027.03;;;17.99;100.00
12178;BME280;6152;48.728;9.256;2023-05-20T08:10:30;97013.44;;;17.94;100.00
12178;BME280;6152;48.728;9.256;2023-05-20T08:12:56;97010.28;;;17.81;100.00
12178;BME280;6152;48.728;9.256;2023-05-20T08:15:22;97015.69;;;17.89;100.00
12178;BME280;6152;48.728;9.256;2023-05-20T08:17:48;97020.09;;;17.98;100.00
12178;BME280;6152;48.728;9.256;2023-05-20T08:20:14;97035.06;;;17.97;100.00
12178;BME280;6152;48.728;9.256;2023-05-20T08:22:41;97040.63;;;17.85;100.00
12178;BME280;6152;48.728;9.256;2023-05-20T08:25:08;97032.03;;;17.83;100.00
12178;BME280;6152;48.728;9.256;2023-05-20T08:27:35;97031.78;;;17.86;100.00
12178;BME280;6152;48.728;9.256;2023-05-20T08:30:01;97038.97;;;17.84;100.00
12178;BME280;6152;48.728;9.256;2023-05-20T08:32:28;97035.34;;;18.04;100.00
12178;BME280;6152;48.728;9.256;2023-05-20T08:34:54;97045.56;;;18.26;100.00
12178;BME280;6152;48.728;9.256;2023-05-20T08:37:20;97041.41;;;18.33;100.00
12178;BME280;6152;48.728;9.256;2023-05-20T08:39:46;97040.97;;;18.28;99.09
12178;BME280;6152;48.728;9.256;2023-05-20T08:42:14;97037.75;;;18.34;100.00
12178;BME280;6152;48.728;9.256;2023-05-20T08:44:43;97036.50;;;18.48;100.00
12178;BME280;6152;48.728;9.256;2023-05-20T08:47:09;97032.78;;;18.50;100.00
12178;BME280;6152;48.728;9.256;2023-05-20T08:49:37;97032.88;;;18.95;97.05
12178;BME280;6152;48.728;9.256;2023-05-20T08:52:03;97029.06;;;19.52;88.98
12178;BME280;6152;48.728;9.256;2023-05-20T08:54:44;97026.13;;;19.91;88.08
12178;BME280;6152;48.728;9.256;2023-05-20T08:57:11;97016.97;;;20.46;78.35
12178;BME280;6152;48.728;9.256;2023-05-20T08:59:42;97017.84;;;20.89;78.37
12178;BME280;6152;48.728;9.256;2023-05-20T09:02:17;97003.00;;;22.51;69.41
12178;BME280;6152;48.728;9.256;2023-05-20T09:04:43;97002.00;;;24.29;57.66
12178;BME280;6152;48.728;9.256;2023-05-20T09:07:09;97000.13;;;25.46;50.53
12178;BME280;6152;48.728;9.256;2023-05-20T09:09:35;96997.53;;;25.89;48.62
12178;BME280;6152;48.728;9.256;2023-05-20T09:12:02;96996.09;;;27.45;44.83
12178;BME280;6152;48.728;9.256;2023-05-20T09:14:29;96991.28;;;28.21;40.57
12178;BME280;6152;48.728;9.256;2023-05-20T09:16:56;96995.59;;;28.81;39.04
12178;BME280;6152;48.728;9.256;2023-05-20T09:19:23;96992.72;;;28.49;39.21
12178;BME280;6152;48.728;9.256;2023-05-20T09:21:53;96982.59;;;27.86;39.51
12178;BME280;6152;48.728;9.256;2023-05-20T09:24:23;96980.13;;;28.04;39.85
12178;BME280;6152;48.728;9.256;2023-05-20T09:26:50;96982.66;;;28.12;40.11
12178;BME280;6152;48.728;9.256;2023-05-20T09:29:17;96975.94;;;29.89;36.87
12178;BME280;6152;48.728;9.256;2023-05-20T09:31:46;96978.28;;;30.96;34.77
12178;BME280;6152;48.728;9.256;2023-05-20T09:34:13;96975.38;;;29.74;35.58
12178;BME280;6152;48.728;9.256;2023-05-20T09:36:40;96974.94;;;29.45;37.15
12178;BME280;6152;48.728;9.256;2023-05-20T09:39:16;96966.50;;;29.42;37.04
12178;BME280;6152;48.728;9.256;2023-05-20T09:42:13;96970.91;;;29.23;37.49
12178;BME280;6152;48.728;9.256;2023-05-20T09:44:42;96977.06;;;30.74;35.85
12178;BME280;6152;48.728;9.256;2023-05-20T09:47:10;96966.84;;;29.90;35.21
12178;BME280;6152;48.728;9.256;2023-05-20T09:49:37;96969.13;;;30.42;34.79
12178;BME280;6152;48.728;9.256;2023-05-20T09:52:04;96960.59;;;30.45;34.34
12178;BME280;6152;48.728;9.256;2023-05-20T09:54:30;96960.56;;;31.25;33.65
12178;BME280;6152;48.728;9.256;2023-05-20T09:56:59;96950.94;;;33.11;30.42
12178;BME280;6152;48.728;9.256;2023-05-20T09:59:26;96947.28;;;34.19;29.11
12178;BME280;6152;48.728;9.256;2023-05-20T10:01:54;96935.97;;;34.38;28.95
12178;BME280;6152;48.728;9.256;2023-05-20T10:04:21;96943.78;;;35.33;27.92
12178;BME280;6152;48.728;9.256;2023-05-20T10:12:28;96924.50;;;34.65;27.46
12178;BME280;6152;48.728;9.256;2023-05-20T10:15:32;96923.78;;;35.61;26.78
12178;BME280;6152;48.728;9.256;2023-05-20T10:20:58;96931.44;;;34.99;27.30
12178;BME280;6152;48.728;9.256;2023-05-20T10:23:27;96918.25;;;33.81;27.83
12178;BME280;6152;48.728;9.256;2023-05-20T10:25:55;96917.84;;;33.04;28.34
12178;BME280;6152;48.728;9.256;2023-05-20T10:28:35;96922.19;;;31.77;30.38
12178;BME280;6152;48.728;9.256;2023-05-20T10:31:02;96918.63;;;31.53;30.26
12178;BME280;6152;48.728;9.256;2023-05-20T10:33:29;96919.09;;;31.62;31.16
12178;BME280;6152;48.728;9.256;2023-05-20T10:35:59;96931.69;;;31.91;31.37
12178;BME280;6152;48.728;9.256;2023-05-20T10:38:25;96920.63;;;32.23;29.48
12178;BME280;6152;48.728;9.256;2023-05-20T10:40:51;96922.69;;;30.90;31.49
12178;BME280;6152;48.728;9.256;2023-05-20T10:43:27;96917.56;;;30.88;31.09
12178;BME280;6152;48.728;9.256;2023-05-20T10:45:55;96912.47;;;31.76;30.62
12178;BME280;6152;48.728;9.256;2023-05-20T10:48:31;96904.53;;;32.86;30.17
12178;BME280;6152;48.728;9.256;2023-05-20T10:50:59;96901.88;;;34.04;28.06
12178;BME280;6152;48.728;9.256;2023-05-20T10:53:37;96906.00;;;35.00;26.60
12178;BME280;6152;48.728;9.256;2023-05-20T10:56:03;96904.63;;;35.19;26.55
12178;BME280;6152;48.728;9.256;2023-05-20T10:58:36;96903.13;;;35.82;25.30
12178;BME280;6152;48.728;9.256;2023-05-20T11:01:03;96896.53;;;36.41;24.89
12178;BME280;6152;48.728;9.256;2023-05-20T11:03:29;96896.53;;;36.05;24.44
12178;BME280;6152;48.728;9.256;2023-05-20T11:05:56;96893.59;;;35.04;25.89
12178;BME280;6152;48.728;9.256;2023-05-20T11:08:22;96888.47;;;35.03;26.09
12178;BME280;6152;48.728;9.256;2023-05-20T11:10:52;96883.75;;;34.16;26.47
12178;BME280;6152;48.728;9.256;2023-05-20T11:13:20;96880.41;;;34.47;26.52
12178;BME280;6152;48.728;9.256;2023-05-20T11:15:48;96870.41;;;35.35;25.84
12178;BME280;6152;48.728;9.256;2023-05-20T11:18:15;96863.41;;;35.12;25.47
12178;BME280;6152;48.728;9.256;2023-05-20T11:20:41;96862.78;;;34.23;26.42
12178;BME280;6152;48.728;9.256;2023-05-20T11:23:12;96864.41;;;33.91;27.57
12178;BME280;6152;48.728;9.256;2023-05-20T11:25:39;96864.94;;;32.51;28.86
12178;BME280;6152;48.728;9.256;2023-05-20T11:28:12;96868.38;;;31.06;30.37
12178;BME280;6152;48.728;9.256;2023-05-20T11:30:39;96855.31;;;31.63;30.01
12178;BME280;6152;48.728;9.256;2023-05-20T11:33:06;96862.81;;;32.77;29.73
12178;BME280;6152;48.728;9.256;2023-05-20T11:35:37;96859.91;;;32.67;28.97
12178;BME280;6152;48.728;9.256;2023-05-20T11:38:09;96861.25;;;32.29;29.14
12178;BME280;6152;48.728;9.256;2023-05-20T11:40:36;96855.56;;;31.61;30.39
12178;BME280;6152;48.728;9.256;2023-05-20T11:43:02;96850.19;;;31.73;30.09
12178;BME280;6152;48.728;9.256;2023-05-20T11:46:03;96850.44;;;31.41;30.61
12178;BME280;6152;48.728;9.256;2023-05-20T11:48:28;96841.53;;;31.71;30.98
12178;BME280;6152;48.728;9.256;2023-05-20T11:50:55;96848.72;;;32.12;30.26
12178;BME280;6152;48.728;9.256;2023-05-20T11:53:23;96837.09;;;31.65;30.68
12178;BME280;6152;48.728;9.256;2023-05-20T11:55:54;96842.25;;;30.40;31.81
12178;BME280;6152;48.728;9.256;2023-05-20T11:58:26;96836.38;;;29.89;32.80
12178;BME280;6152;48.728;9.256;2023-05-20T12:00:52;96833.00;;;29.69;32.77
12178;BME280;6152;48.728;9.256;2023-05-20T12:03:19;96827.50;;;29.01;34.10
12178;BME280;6152;48.728;9.256;2023-05-20T12:05:45;96833.84;;;28.69;34.13
12178;BME280;6152;48.728;9.256;2023-05-20T12:08:13;96833.06;;;28.48;34.42
12178;BME280;6152;48.728;9.256;2023-05-20T12:10:40;96837.28;;;28.05;35.52
12178;BME280;6152;48.728;9.256;2023-05-20T12:13:07;96827.84;;;27.83;36.31
12178;BME280;6152;48.728;9.256;2023-05-20T12:15:37;96832.78;;;27.73;36.46
12178;BME280;6152;48.728;9.256;2023-05-20T12:18:03;96824.56;;;27.48;36.57
12178;BME280;6152;48.728;9.256;2023-05-20T12:20:30;96818.41;;;27.60;37.61
12178;BME280;6152;48.728;9.256;2023-05-20T12:22:59;96806.06;;;27.66;37.35
12178;BME280;6152;48.728;9.256;2023-05-20T12:25:25;96814.44;;;28.02;36.72
12178;BME280;6152;48.728;9.256;2023-05-20T12:27:52;96804.38;;;27.98;36.11
12178;BME280;6152;48.728;9.256;2023-05-20T12:30:22;96804.00;;;27.81;36.08
12178;BME280;6152;48.728;9.256;2023-05-20T12:32:50;96809.75;;;27.52;36.96
12178;BME280;6152;48.728;9.256;2023-05-20T12:35:21;96805.63;;;27.17;37.46
12178;BME280;6152;48.728;9.256;2023-05-20T12:37:47;96815.44;;;26.96;38.78
12178;BME280;6152;48.728;9.256;2023-05-20T12:40:14;96807.50;;;26.62;39.49
12178;BME280;6152;48.728;9.256;2023-05-20T12:42:40;96821.88;;;26.54;39.92
12178;BME280;6152;48.728;9.256;2023-05-20T12:45:08;96817.50;;;26.06;39.28
12178;BME280;6152;48.728;9.256;2023-05-20T12:47:35;96819.34;;;26.05;40.11
12178;BME280;6152;48.728;9.256;2023-05-20T12:50:02;96825.72;;;26.11;40.35
12178;BME280;6152;48.728;9.256;2023-05-20T12:52:28;96817.50;;;26.06;40.36
12178;BME280;6152;48.728;9.256;2023-05-20T12:54:55;96815.06;;;25.77;40.18
12178;BME280;6152;48.728;9.256;2023-05-20T12:57:22;96806.69;;;25.86;40.32
12178;BME280;6152;48.728;9.256;2023-05-20T12:59:49;96807.13;;;25.90;41.15
12178;BME280;6152;48.728;9.256;2023-05-20T13:02:15;96803.72;;;25.96;41.32
12178;BME280;6152;48.728;9.256;2023-05-20T13:04:42;96804.38;;;25.77;40.66
12178;BME280;6152;48.728;9.256;2023-05-20T13:07:08;96810.28;;;25.72;41.04
12178;BME280;6152;48.728;9.256;2023-05-20T13:09:34;96794.00;;;25.88;42.54
12178;BME280;6152;48.728;9.256;2023-05-20T13:12:00;96797.94;;;25.92;40.82
12178;BME280;6152;48.728;9.256;2023-05-20T13:14:26;96796.81;;;25.80;40.62
12178;BME280;6152;48.728;9.256;2023-05-20T13:16:53;96791.50;;;25.52;41.69